Terminal Aerodrome Forecast
Issued by NWS

Home | Current Version | Previous Version | Text Only | Print | Product List | Glossary On
Versions: 1 2 3 4 5 6 7 8 9 10 11 12 13 14 15 16 17 18 19 20 21
000
FTUS41 KPBZ 220235 AAA
TAFAGC
TAF AMD
KAGC 220235Z 2203/2224 35008KT P6SM OVC020
     FM220400 01008KT P6SM OVC035
     FM220700 02008KT 4SM -RA OVC030
     FM221000 03010KT 2SM -RA OVC015
     FM221600 03010KT 2SM -RA BR OVC008
     FM221900 03008KT P6SM OVC008
     FM222200 03005KT P6SM OVC010=

USA.gov is the U.S. government's official web portal to all federal, state and local government web resources and services.